sensor_id;sensor_type;location;lat;lon;timestamp;P1;durP1;ratioP1;P2;durP2;ratioP2
2041;SDS011;1026;51.460;7.252;2024-03-08T00:00:09;17.53;;;12.40;;
2041;SDS011;1026;51.460;7.252;2024-03-08T00:02:41;16.90;;;13.70;;
2041;SDS011;1026;51.460;7.252;2024-03-08T00:05:09;16.30;;;11.97;;
2041;SDS011;1026;51.460;7.252;2024-03-08T00:07:37;14.67;;;13.10;;
2041;SDS011;1026;51.460;7.252;2024-03-08T00:10:05;16.80;;;13.60;;
2041;SDS011;1026;51.460;7.252;2024-03-08T00:12:38;14.80;;;11.33;;
2041;SDS011;1026;51.460;7.252;2024-03-08T00:15:15;14.50;;;13.00;;
2041;SDS011;1026;51.460;7.252;2024-03-08T00:17:45;16.07;;;12.20;;
2041;SDS011;1026;51.460;7.252;2024-03-08T00:20:14;14.63;;;11.67;;
2041;SDS011;1026;51.460;7.252;2024-03-08T00:22:45;13.27;;;10.67;;
2041;SDS011;1026;51.460;7.252;2024-03-08T00:25:12;16.77;;;12.60;;
2041;SDS011;1026;51.460;7.252;2024-03-08T00:27:40;15.90;;;14.20;;
2041;SDS011;1026;51.460;7.252;2024-03-08T00:30:07;15.80;;;13.03;;
2041;SDS011;1026;51.460;7.252;2024-03-08T00:32:35;17.90;;;13.17;;
2041;SDS011;1026;51.460;7.252;2024-03-08T00:35:04;15.87;;;12.40;;
2041;SDS011;1026;51.460;7.252;2024-03-08T00:37:34;14.67;;;12.70;;
2041;SDS011;1026;51.460;7.252;2024-03-08T00:40:01;22.10;;;15.07;;
2041;SDS011;1026;51.460;7.252;2024-03-08T00:42:29;14.20;;;11.70;;
2041;SDS011;1026;51.460;7.252;2024-03-08T00:44:56;17.33;;;14.67;;
2041;SDS011;1026;51.460;7.252;2024-03-08T00:47:25;14.80;;;11.87;;
2041;SDS011;1026;51.460;7.252;2024-03-08T00:49:52;14.37;;;11.97;;
2041;SDS011;1026;51.460;7.252;2024-03-08T00:52:19;15.87;;;13.20;;
2041;SDS011;1026;51.460;7.252;2024-03-08T00:54:47;16.20;;;14.53;;
2041;SDS011;1026;51.460;7.252;2024-03-08T00:57:14;18.70;;;14.23;;
2041;SDS011;1026;51.460;7.252;2024-03-08T00:59:41;14.67;;;12.07;;
2041;SDS011;1026;51.460;7.252;2024-03-08T01:02:08;16.57;;;13.63;;
2041;SDS011;1026;51.460;7.252;2024-03-08T01:04:36;14.40;;;12.57;;
2041;SDS011;1026;51.460;7.252;2024-03-08T01:07:03;18.60;;;14.70;;
2041;SDS011;1026;51.460;7.252;2024-03-08T01:09:30;18.43;;;13.17;;
2041;SDS011;1026;51.460;7.252;2024-03-08T01:11:57;13.53;;;12.10;;
2041;SDS011;1026;51.460;7.252;2024-03-08T01:14:24;19.20;;;13.70;;
2041;SDS011;1026;51.460;7.252;2024-03-08T01:16:56;17.87;;;14.40;;
2041;SDS011;1026;51.460;7.252;2024-03-08T01:19:23;16.50;;;14.50;;
2041;SDS011;1026;51.460;7.252;2024-03-08T01:21:51;21.00;;;15.87;;
2041;SDS011;1026;51.460;7.252;2024-03-08T01:24:18;20.23;;;15.73;;
2041;SDS011;1026;51.460;7.252;2024-03-08T01:26:45;20.00;;;16.27;;
2041;SDS011;1026;51.460;7.252;2024-03-08T01:29:14;16.37;;;13.37;;
2041;SDS011;1026;51.460;7.252;2024-03-08T01:31:41;17.63;;;14.80;;
2041;SDS011;1026;51.460;7.252;2024-03-08T01:34:08;15.43;;;13.00;;
2041;SDS011;1026;51.460;7.252;2024-03-08T01:36:35;17.53;;;13.63;;
2041;SDS011;1026;51.460;7.252;2024-03-08T01:39:03;16.43;;;13.10;;
2041;SDS011;1026;51.460;7.252;2024-03-08T01:41:35;16.53;;;12.47;;
2041;SDS011;1026;51.460;7.252;2024-03-08T01:44:02;20.10;;;13.60;;
2041;SDS011;1026;51.460;7.252;2024-03-08T01:46:30;18.07;;;14.30;;
2041;SDS011;1026;51.460;7.252;2024-03-08T01:48:58;15.77;;;13.00;;
2041;SDS011;1026;51.460;7.252;2024-03-08T01:51:27;18.27;;;14.70;;
2041;SDS011;1026;51.460;7.252;2024-03-08T01:53:55;20.03;;;14.20;;
2041;SDS011;1026;51.460;7.252;2024-03-08T01:56:24;16.50;;;13.20;;
2041;SDS011;1026;51.460;7.252;2024-03-08T01:58:52;16.10;;;12.40;;
2041;SDS011;1026;51.460;7.252;2024-03-08T02:01:19;18.63;;;14.97;;
2041;SDS011;1026;51.460;7.252;2024-03-08T02:03:46;21.87;;;15.50;;
2041;SDS011;1026;51.460;7.252;2024-03-08T02:06:13;16.03;;;13.50;;
2041;SDS011;1026;51.460;7.252;2024-03-08T02:08:42;19.50;;;14.23;;
2041;SDS011;1026;51.460;7.252;2024-03-08T02:11:13;19.00;;;15.20;;
2041;SDS011;1026;51.460;7.252;2024-03-08T02:13:41;17.90;;;14.37;;
2041;SDS011;1026;51.460;7.252;2024-03-08T02:16:08;14.67;;;12.87;;
2041;SDS011;1026;51.460;7.252;2024-03-08T02:18:35;17.13;;;14.00;;
2041;SDS011;1026;51.460;7.252;2024-03-08T02:21:04;16.87;;;13.93;;
2041;SDS011;1026;51.460;7.252;2024-03-08T02:23:33;18.47;;;14.40;;
2041;SDS011;1026;51.460;7.252;2024-03-08T02:26:01;21.10;;;15.97;;
2041;SDS011;1026;51.460;7.252;2024-03-08T02:28:28;17.23;;;14.20;;
2041;SDS011;1026;51.460;7.252;2024-03-08T02:30:55;16.57;;;13.63;;
2041;SDS011;1026;51.460;7.252;2024-03-08T02:33:24;20.57;;;16.57;;
2041;SDS011;1026;51.460;7.252;2024-03-08T02:35:53;20.97;;;14.20;;
2041;SDS011;1026;51.460;7.252;2024-03-08T02:38:21;19.00;;;13.20;;
2041;SDS011;1026;51.460;7.252;2024-03-08T02:40:49;18.30;;;14.00;;
2041;SDS011;1026;51.460;7.252;2024-03-08T02:43:18;16.93;;;14.13;;
2041;SDS011;1026;51.460;7.252;2024-03-08T02:45:46;17.50;;;12.67;;
2041;SDS011;1026;51.460;7.252;2024-03-08T02:48:13;15.93;;;13.57;;
2041;SDS011;1026;51.460;7.252;2024-03-08T02:50:43;17.70;;;13.87;;
2041;SDS011;1026;51.460;7.252;2024-03-08T02:53:12;21.73;;;15.10;;
2041;SDS011;1026;51.460;7.252;2024-03-08T02:55:40;19.00;;;14.47;;
2041;SDS011;1026;51.460;7.252;2024-03-08T02:58:08;15.40;;;13.60;;
2041;SDS011;1026;51.460;7.252;2024-03-08T03:00:37;16.80;;;14.07;;
2041;SDS011;1026;51.460;7.252;2024-03-08T03:03:08;17.27;;;14.17;;
2041;SDS011;1026;51.460;7.252;2024-03-08T03:05:35;18.87;;;14.73;;
2041;SDS011;1026;51.460;7.252;2024-03-08T03:08:02;19.23;;;15.57;;
2041;SDS011;1026;51.460;7.252;2024-03-08T03:10:36;19.47;;;15.77;;
2041;SDS011;1026;51.460;7.252;2024-03-08T03:13:04;15.60;;;13.10;;
2041;SDS011;1026;51.460;7.252;2024-03-08T03:15:31;19.50;;;14.70;;
2041;SDS011;1026;51.460;7.252;2024-03-08T03:18:00;17.47;;;12.70;;
2041;SDS011;1026;51.460;7.252;2024-03-08T03:20:28;17.83;;;13.50;;
2041;SDS011;1026;51.460;7.252;2024-03-08T03:23:08;21.37;;;16.20;;
2041;SDS011;1026;51.460;7.252;2024-03-08T03:25:35;18.50;;;14.07;;
2041;SDS011;1026;51.460;7.252;2024-03-08T03:28:05;18.10;;;13.40;;
2041;SDS011;1026;51.460;7.252;2024-03-08T03:30:34;20.57;;;14.57;;
2041;SDS011;1026;51.460;7.252;2024-03-08T03:33:01;20.17;;;15.27;;
2041;SDS011;1026;51.460;7.252;2024-03-08T03:35:34;18.83;;;14.80;;
2041;SDS011;1026;51.460;7.252;2024-03-08T03:38:04;20.40;;;14.10;;
2041;SDS011;1026;51.460;7.252;2024-03-08T03:40:36;16.40;;;13.70;;
2041;SDS011;1026;51.460;7.252;2024-03-08T03:43:05;19.63;;;14.00;;
2041;SDS011;1026;51.460;7.252;2024-03-08T03:45:32;19.03;;;14.13;;
2041;SDS011;1026;51.460;7.252;2024-03-08T03:48:04;19.77;;;15.13;;
2041;SDS011;1026;51.460;7.252;2024-03-08T03:50:37;19.03;;;14.03;;
2041;SDS011;1026;51.460;7.252;2024-03-08T03:53:05;17.07;;;13.40;;
2041;SDS011;1026;51.460;7.252;2024-03-08T03:55:37;20.43;;;13.93;;
2041;SDS011;1026;51.460;7.252;2024-03-08T03:58:06;21.20;;;15.90;;
2041;SDS011;1026;51.460;7.252;2024-03-08T04:00:34;18.70;;;13.90;;
2041;SDS011;1026;51.460;7.252;2024-03-08T04:03:01;20.23;;;14.50;;
2041;SDS011;1026;51.460;7.252;2024-03-08T04:05:28;19.10;;;14.67;;
2041;SDS011;1026;51.460;7.252;2024-03-08T04:07:55;16.60;;;13.30;;
2041;SDS011;1026;51.460;7.252;2024-03-08T04:10:23;21.53;;;15.90;;
2041;SDS011;1026;51.460;7.252;2024-03-08T04:12:50;20.57;;;15.27;;
2041;SDS011;1026;51.460;7.252;2024-03-08T04:15:17;20.20;;;14.50;;
2041;SDS011;1026;51.460;7.252;2024-03-08T04:17:44;18.30;;;14.90;;
2041;SDS011;1026;51.460;7.252;2024-03-08T04:20:12;22.03;;;15.60;;
2041;SDS011;1026;51.460;7.252;2024-03-08T04:22:41;18.30;;;14.33;;
2041;SDS011;1026;51.460;7.252;2024-03-08T04:25:28;22.40;;;15.70;;
2041;SDS011;1026;51.460;7.252;2024-03-08T04:27:55;20.73;;;15.33;;
2041;SDS011;1026;51.460;7.252;2024-03-08T04:30:22;18.77;;;14.30;;
2041;SDS011;1026;51.460;7.252;2024-03-08T04:32:49;21.30;;;15.10;;
2041;SDS011;1026;51.460;7.252;2024-03-08T04:35:16;21.60;;;15.50;;
2041;SDS011;1026;51.460;7.252;2024-03-08T04:37:43;23.03;;;15.83;;
2041;SDS011;1026;51.460;7.252;2024-03-08T04:40:11;20.27;;;15.63;;
2041;SDS011;1026;51.460;7.252;2024-03-08T04:42:38;18.10;;;15.13;;
2041;SDS011;1026;51.460;7.252;2024-03-08T04:45:06;24.07;;;16.03;;
2041;SDS011;1026;51.460;7.252;2024-03-08T04:47:37;21.20;;;15.87;;
2041;SDS011;1026;51.460;7.252;2024-03-08T04:50:05;20.77;;;16.60;;
2041;SDS011;1026;51.460;7.252;2024-03-08T04:52:33;21.87;;;15.77;;
2041;SDS011;1026;51.460;7.252;2024-03-08T04:55:00;22.60;;;16.40;;
2041;SDS011;1026;51.460;7.252;2024-03-08T04:57:26;21.93;;;16.00;;
2041;SDS011;1026;51.460;7.252;2024-03-08T04:59:54;21.37;;;16.63;;
2041;SDS011;1026;51.460;7.252;2024-03-08T05:02:21;19.17;;;15.83;;
2041;SDS011;1026;51.460;7.252;2024-03-08T05:04:49;21.60;;;16.37;;
2041;SDS011;1026;51.460;7.252;2024-03-08T05:07:16;20.57;;;16.50;;
2041;SDS011;1026;51.460;7.252;2024-03-08T05:09:43;21.63;;;16.13;;
2041;SDS011;1026;51.460;7.252;2024-03-08T05:12:18;16.67;;;13.90;;
2041;SDS011;1026;51.460;7.252;2024-03-08T05:14:45;18.60;;;15.87;;
2041;SDS011;1026;51.460;7.252;2024-03-08T05:17:16;20.70;;;15.40;;
2041;SDS011;1026;51.460;7.252;2024-03-08T05:19:44;22.10;;;16.13;;
2041;SDS011;1026;51.460;7.252;2024-03-08T05:22:11;21.03;;;16.27;;
2041;SDS011;1026;51.460;7.252;2024-03-08T05:24:38;18.40;;;16.40;;
2041;SDS011;1026;51.460;7.252;2024-03-08T05:27:05;16.70;;;13.30;;
2041;SDS011;1026;51.460;7.252;2024-03-08T05:29:32;25.00;;;15.97;;
2041;SDS011;1026;51.460;7.252;2024-03-08T05:31:59;25.47;;;18.53;;
2041;SDS011;1026;51.460;7.252;2024-03-08T05:34:27;18.77;;;15.60;;
2041;SDS011;1026;51.460;7.252;2024-03-08T05:36:55;19.70;;;14.97;;
2041;SDS011;1026;51.460;7.252;2024-03-08T05:39:24;19.63;;;15.83;;
2041;SDS011;1026;51.460;7.252;2024-03-08T05:41:51;19.13;;;15.17;;
2041;SDS011;1026;51.460;7.252;2024-03-08T05:44:19;20.70;;;16.13;;
2041;SDS011;1026;51.460;7.252;2024-03-08T05:46:46;19.43;;;15.00;;
2041;SDS011;1026;51.460;7.252;2024-03-08T05:49:13;19.93;;;16.00;;
2041;SDS011;1026;51.460;7.252;2024-03-08T05:51:41;21.50;;;16.47;;
2041;SDS011;1026;51.460;7.252;2024-03-08T05:54:09;20.87;;;16.53;;
2041;SDS011;1026;51.460;7.252;2024-03-08T05:56:40;21.90;;;15.80;;
2041;SDS011;1026;51.460;7.252;2024-03-08T05:59:09;19.27;;;15.17;;
2041;SDS011;1026;51.460;7.252;2024-03-08T06:01:36;19.40;;;14.80;;
2041;SDS011;1026;51.460;7.252;2024-03-08T06:04:04;23.90;;;16.30;;
2041;SDS011;1026;51.460;7.252;2024-03-08T06:06:31;27.27;;;18.90;;
2041;SDS011;1026;51.460;7.252;2024-03-08T06:08:58;25.80;;;19.00;;
2041;SDS011;1026;51.460;7.252;2024-03-08T06:11:26;24.67;;;18.70;;
2041;SDS011;1026;51.460;7.252;2024-03-08T06:13:58;24.20;;;17.33;;
2041;SDS011;1026;51.460;7.252;2024-03-08T06:16:26;28.30;;;19.83;;
2041;SDS011;1026;51.460;7.252;2024-03-08T06:18:56;28.67;;;19.57;;
2041;SDS011;1026;51.460;7.252;2024-03-08T06:21:24;25.50;;;18.40;;
2041;SDS011;1026;51.460;7.252;2024-03-08T06:23:54;28.23;;;18.77;;
2041;SDS011;1026;51.460;7.252;2024-03-08T06:26:21;24.57;;;18.00;;
2041;SDS011;1026;51.460;7.252;2024-03-08T06:28:48;30.83;;;21.73;;
2041;SDS011;1026;51.460;7.252;2024-03-08T06:31:17;29.50;;;19.03;;
2041;SDS011;1026;51.460;7.252;2024-03-08T06:33:44;37.73;;;21.90;;
2041;SDS011;1026;51.460;7.252;2024-03-08T06:36:12;44.00;;;25.27;;
2041;SDS011;1026;51.460;7.252;2024-03-08T06:38:40;43.33;;;25.53;;
2041;SDS011;1026;51.460;7.252;2024-03-08T06:41:09;31.23;;;20.67;;
2041;SDS011;1026;51.460;7.252;2024-03-08T06:43:42;29.33;;;20.00;;
2041;SDS011;1026;51.460;7.252;2024-03-08T06:46:14;32.00;;;21.27;;
2041;SDS011;1026;51.460;7.252;2024-03-08T06:48:42;27.13;;;19.23;;
2041;SDS011;1026;51.460;7.252;2024-03-08T06:51:09;26.50;;;18.37;;
2041;SDS011;1026;51.460;7.252;2024-03-08T06:53:38;23.27;;;17.37;;
2041;SDS011;1026;51.460;7.252;2024-03-08T06:56:05;24.03;;;18.07;;
2041;SDS011;1026;51.460;7.252;2024-03-08T06:58:36;24.87;;;18.90;;
2041;SDS011;1026;51.460;7.252;2024-03-08T07:01:03;22.80;;;18.27;;
2041;SDS011;1026;51.460;7.252;2024-03-08T07:03:34;23.53;;;17.47;;
2041;SDS011;1026;51.460;7.252;2024-03-08T07:06:02;22.07;;;15.87;;
2041;SDS011;1026;51.460;7.252;2024-03-08T07:08:30;29.40;;;18.57;;
2041;SDS011;1026;51.460;7.252;2024-03-08T07:10:57;23.20;;;16.87;;
2041;SDS011;1026;51.460;7.252;2024-03-08T07:13:26;20.20;;;16.70;;
2041;SDS011;1026;51.460;7.252;2024-03-08T07:15:55;26.23;;;17.33;;
2041;SDS011;1026;51.460;7.252;2024-03-08T07:18:22;26.80;;;17.83;;
2041;SDS011;1026;51.460;7.252;2024-03-08T07:20:49;23.77;;;15.93;;
2041;SDS011;1026;51.460;7.252;2024-03-08T07:23:17;21.97;;;15.60;;
2041;SDS011;1026;51.460;7.252;2024-03-08T07:26:03;21.20;;;16.17;;
2041;SDS011;1026;51.460;7.252;2024-03-08T07:28:30;28.10;;;19.70;;
2041;SDS011;1026;51.460;7.252;2024-03-08T07:30:58;23.03;;;16.43;;
2041;SDS011;1026;51.460;7.252;2024-03-08T07:33:50;22.20;;;16.20;;
2041;SDS011;1026;51.460;7.252;2024-03-08T07:36:17;19.90;;;15.00;;
2041;SDS011;1026;51.460;7.252;2024-03-08T07:38:44;25.90;;;18.20;;
2041;SDS011;1026;51.460;7.252;2024-03-08T07:41:14;19.80;;;14.87;;
2041;SDS011;1026;51.460;7.252;2024-03-08T07:43:42;19.67;;;13.87;;
2041;SDS011;1026;51.460;7.252;2024-03-08T07:46:10;28.00;;;18.23;;
2041;SDS011;1026;51.460;7.252;2024-03-08T07:48:37;24.00;;;16.70;;
2041;SDS011;1026;51.460;7.252;2024-03-08T07:51:04;25.33;;;19.00;;
2041;SDS011;1026;51.460;7.252;2024-03-08T07:53:32;22.73;;;14.80;;
2041;SDS011;1026;51.460;7.252;2024-03-08T07:55:59;21.13;;;14.43;;
2041;SDS011;1026;51.460;7.252;2024-03-08T07:58:26;25.70;;;17.90;;
2041;SDS011;1026;51.460;7.252;2024-03-08T08:00:54;29.50;;;20.00;;
2041;SDS011;1026;51.460;7.252;2024-03-08T08:03:21;32.50;;;18.13;;
2041;SDS011;1026;51.460;7.252;2024-03-08T08:05:48;23.73;;;18.00;;
2041;SDS011;1026;51.460;7.252;2024-03-08T08:08:16;23.77;;;16.87;;
2041;SDS011;1026;51.460;7.252;2024-03-08T08:10:42;25.80;;;17.57;;
2041;SDS011;1026;51.460;7.252;2024-03-08T08:13:10;23.67;;;16.90;;
2041;SDS011;1026;51.460;7.252;2024-03-08T08:15:37;29.93;;;20.10;;
2041;SDS011;1026;51.460;7.252;2024-03-08T08:18:04;28.80;;;20.10;;
2041;SDS011;1026;51.460;7.252;2024-03-08T08:20:33;21.70;;;16.07;;
2041;SDS011;1026;51.460;7.252;2024-03-08T08:23:00;22.63;;;16.87;;
2041;SDS011;1026;51.460;7.252;2024-03-08T08:25:27;23.03;;;16.43;;
2041;SDS011;1026;51.460;7.252;2024-03-08T08:27:54;25.87;;;19.33;;
2041;SDS011;1026;51.460;7.252;2024-03-08T08:30:21;28.40;;;18.37;;
2041;SDS011;1026;51.460;7.252;2024-03-08T08:32:49;25.27;;;17.50;;
2041;SDS011;1026;51.460;7.252;2024-03-08T08:35:16;26.80;;;16.47;;
2041;SDS011;1026;51.460;7.252;2024-03-08T08:37:45;26.50;;;18.00;;
2041;SDS011;1026;51.460;7.252;2024-03-08T08:40:12;26.23;;;17.90;;
2041;SDS011;1026;51.460;7.252;2024-03-08T08:42:44;22.90;;;17.80;;
2041;SDS011;1026;51.460;7.252;2024-03-08T08:45:15;26.30;;;17.70;;
2041;SDS011;1026;51.460;7.252;2024-03-08T08:47:50;26.17;;;17.80;;
2041;SDS011;1026;51.460;7.252;2024-03-08T08:50:18;29.67;;;19.50;;
2041;SDS011;1026;51.460;7.252;2024-03-08T08:52:52;30.40;;;22.33;;
2041;SDS011;1026;51.460;7.252;2024-03-08T08:55:20;28.23;;;19.53;;
2041;SDS011;1026;51.460;7.252;2024-03-08T08:57:57;29.53;;;20.83;;
2041;SDS011;1026;51.460;7.252;2024-03-08T09:00:24;32.47;;;19.93;;
2041;SDS011;1026;51.460;7.252;2024-03-08T09:02:54;28.00;;;21.37;;
2041;SDS011;1026;51.460;7.252;2024-03-08T09:05:25;27.10;;;19.80;;
2041;SDS011;1026;51.460;7.252;2024-03-08T09:07:52;32.83;;;20.17;;
2041;SDS011;1026;51.460;7.252;2024-03-08T09:10:20;30.43;;;20.53;;
2041;SDS011;1026;51.460;7.252;2024-03-08T09:12:48;28.50;;;21.23;;
2041;SDS011;1026;51.460;7.252;2024-03-08T09:15:15;30.90;;;20.13;;
2041;SDS011;1026;51.460;7.252;2024-03-08T09:17:44;31.67;;;22.17;;
2041;SDS011;1026;51.460;7.252;2024-03-08T09:20:11;58.97;;;23.27;;
2041;SDS011;1026;51.460;7.252;2024-03-08T09:22:44;27.83;;;19.70;;
2041;SDS011;1026;51.460;7.252;2024-03-08T09:25:13;57.17;;;22.90;;
2041;SDS011;1026;51.460;7.252;2024-03-08T09:27:40;34.30;;;21.03;;
2041;SDS011;1026;51.460;7.252;2024-03-08T09:30:08;26.90;;;20.03;;
2041;SDS011;1026;51.460;7.252;2024-03-08T09:32:35;26.87;;;20.80;;
2041;SDS011;1026;51.460;7.252;2024-03-08T09:35:04;34.90;;;21.13;;
2041;SDS011;1026;51.460;7.252;2024-03-08T09:37:35;34.63;;;21.43;;
2041;SDS011;1026;51.460;7.252;2024-03-08T09:40:02;34.23;;;21.07;;
2041;SDS011;1026;51.460;7.252;2024-03-08T09:42:37;24.90;;;16.83;;
2041;SDS011;1026;51.460;7.252;2024-03-08T09:45:10;34.73;;;18.87;;
2041;SDS011;1026;51.460;7.252;2024-03-08T09:47:41;32.20;;;23.00;;
2041;SDS011;1026;51.460;7.252;2024-03-08T09:50:08;31.33;;;22.70;;
2041;SDS011;1026;51.460;7.252;2024-03-08T09:52:36;34.70;;;21.77;;
2041;SDS011;1026;51.460;7.252;2024-03-08T09:55:04;28.00;;;21.33;;
2041;SDS011;1026;51.460;7.252;2024-03-08T09:57:32;25.07;;;18.47;;
2041;SDS011;1026;51.460;7.252;2024-03-08T10:00:01;33.50;;;22.67;;
2041;SDS011;1026;51.460;7.252;2024-03-08T10:02:35;31.30;;;21.17;;
2041;SDS011;1026;51.460;7.252;2024-03-08T10:05:02;28.23;;;19.33;;
2041;SDS011;1026;51.460;7.252;2024-03-08T10:07:29;32.83;;;21.67;;
2041;SDS011;1026;51.460;7.252;2024-03-08T10:09:56;29.30;;;22.17;;
2041;SDS011;1026;51.460;7.252;2024-03-08T10:12:23;32.70;;;23.53;;
2041;SDS011;1026;51.460;7.252;2024-03-08T10:14:52;30.10;;;20.90;;
2041;SDS011;1026;51.460;7.252;2024-03-08T10:17:22;34.03;;;21.63;;
2041;SDS011;1026;51.460;7.252;2024-03-08T10:19:50;31.50;;;19.60;;
2041;SDS011;1026;51.460;7.252;2024-03-08T10:22:20;31.93;;;21.70;;
2041;SDS011;1026;51.460;7.252;2024-03-08T10:24:48;28.17;;;21.53;;
2041;SDS011;1026;51.460;7.252;2024-03-08T10:27:18;26.70;;;19.80;;
2041;SDS011;1026;51.460;7.252;2024-03-08T10:29:48;31.60;;;20.60;;
2041;SDS011;1026;51.460;7.252;2024-03-08T10:32:18;30.23;;;21.10;;
2041;SDS011;1026;51.460;7.252;2024-03-08T10:34:45;33.20;;;23.87;;
2041;SDS011;1026;51.460;7.252;2024-03-08T10:37:14;32.07;;;22.07;;
2041;SDS011;1026;51.460;7.252;2024-03-08T10:39:53;32.40;;;21.27;;
2041;SDS011;1026;51.460;7.252;2024-03-08T10:42:58;24.57;;;17.27;;
2041;SDS011;1026;51.460;7.252;2024-03-08T10:45:35;30.73;;;21.00;;
2041;SDS011;1026;51.460;7.252;2024-03-08T10:48:31;31.10;;;21.23;;
2041;SDS011;1026;51.460;7.252;2024-03-08T10:51:05;27.97;;;21.70;;
2041;SDS011;1026;51.460;7.252;2024-03-08T10:53:34;31.90;;;22.00;;
2041;SDS011;1026;51.460;7.252;2024-03-08T10:56:04;26.93;;;18.50;;
2041;SDS011;1026;51.460;7.252;2024-03-08T10:58:31;33.77;;;21.30;;
2041;SDS011;1026;51.460;7.252;2024-03-08T11:01:01;32.38;;;22.90;;
2041;SDS011;1026;51.460;7.252;2024-03-08T11:03:44;34.83;;;22.77;;
2041;SDS011;1026;51.460;7.252;2024-03-08T11:09:28;35.63;;;20.70;;
2041;SDS011;1026;51.460;7.252;2024-03-08T11:14:59;27.83;;;19.93;;
2041;SDS011;1026;51.460;7.252;2024-03-08T11:20:18;32.43;;;22.90;;
2041;SDS011;1026;51.460;7.252;2024-03-08T11:22:52;37.47;;;23.03;;
2041;SDS011;1026;51.460;7.252;2024-03-08T11:25:34;27.07;;;20.50;;
2041;SDS011;1026;51.460;7.252;2024-03-08T11:28:17;30.43;;;21.47;;
2041;SDS011;1026;51.460;7.252;2024-03-08T11:33:50;27.60;;;21.93;;
2041;SDS011;1026;51.460;7.252;2024-03-08T11:36:20;28.07;;;19.53;;
2041;SDS011;1026;51.460;7.252;2024-03-08T11:38:51;24.60;;;18.30;;
2041;SDS011;1026;51.460;7.252;2024-03-08T11:41:19;29.37;;;18.57;;
2041;SDS011;1026;51.460;7.252;2024-03-08T11:43:48;27.17;;;19.20;;
2041;SDS011;1026;51.460;7.252;2024-03-08T11:46:16;29.63;;;18.93;;
2041;SDS011;1026;51.460;7.252;2024-03-08T11:48:46;26.73;;;18.10;;
2041;SDS011;1026;51.460;7.252;2024-03-08T11:51:15;27.83;;;20.30;;
2041;SDS011;1026;51.460;7.252;2024-03-08T11:53:45;30.20;;;21.70;;
2041;SDS011;1026;51.460;7.252;2024-03-08T11:56:13;28.80;;;19.20;;
2041;SDS011;1026;51.460;7.252;2024-03-08T11:58:51;25.63;;;19.43;;
2041;SDS011;1026;51.460;7.252;2024-03-08T12:01:19;27.77;;;19.97;;
2041;SDS011;1026;51.460;7.252;2024-03-08T12:03:52;29.85;;;21.23;;
2041;SDS011;1026;51.460;7.252;2024-03-08T12:06:25;31.90;;;19.70;;
2041;SDS011;1026;51.460;7.252;2024-03-08T12:08:53;30.40;;;21.00;;
2041;SDS011;1026;51.460;7.252;2024-03-08T12:11:20;22.47;;;17.17;;
2041;SDS011;1026;51.460;7.252;2024-03-08T12:13:50;25.10;;;18.63;;
2041;SDS011;1026;51.460;7.252;2024-03-08T12:16:18;28.03;;;18.47;;
2041;SDS011;1026;51.460;7.252;2024-03-08T12:18:47;26.13;;;18.13;;
2041;SDS011;1026;51.460;7.252;2024-03-08T12:21:15;28.63;;;20.80;;
2041;SDS011;1026;51.460;7.252;2024-03-08T12:23:46;28.07;;;16.87;;
2041;SDS011;1026;51.460;7.252;2024-03-08T12:26:24;21.03;;;15.67;;
2041;SDS011;1026;51.460;7.252;2024-03-08T12:28:52;21.90;;;14.63;;
2041;SDS011;1026;51.460;7.252;2024-03-08T12:31:20;19.03;;;11.80;;
2041;SDS011;1026;51.460;7.252;2024-03-08T12:33:49;14.40;;;10.10;;
2041;SDS011;1026;51.460;7.252;2024-03-08T12:36:20;12.87;;;10.10;;
2041;SDS011;1026;51.460;7.252;2024-03-08T12:38:47;17.83;;;11.37;;
2041;SDS011;1026;51.460;7.252;2024-03-08T12:41:15;11.20;;;9.57;;
2041;SDS011;1026;51.460;7.252;2024-03-08T12:43:44;14.40;;;10.07;;
2041;SDS011;1026;51.460;7.252;2024-03-08T12:46:18;14.47;;;10.50;;
2041;SDS011;1026;51.460;7.252;2024-03-08T12:48:48;13.80;;;9.30;;
2041;SDS011;1026;51.460;7.252;2024-03-08T12:51:16;16.30;;;11.97;;
2041;SDS011;1026;51.460;7.252;2024-03-08T12:53:45;17.60;;;11.90;;
2041;SDS011;1026;51.460;7.252;2024-03-08T12:56:12;15.23;;;11.13;;
2041;SDS011;1026;51.460;7.252;2024-03-08T12:58:41;12.93;;;8.40;;
2041;SDS011;1026;51.460;7.252;2024-03-08T13:01:09;13.83;;;10.43;;
2041;SDS011;1026;51.460;7.252;2024-03-08T13:03:36;15.07;;;10.80;;
2041;SDS011;1026;51.460;7.252;2024-03-08T13:06:04;12.20;;;9.60;;
2041;SDS011;1026;51.460;7.252;2024-03-08T13:08:35;14.13;;;10.67;;
2041;SDS011;1026;51.460;7.252;2024-03-08T13:11:05;15.63;;;11.37;;
2041;SDS011;1026;51.460;7.252;2024-03-08T13:13:40;15.53;;;10.90;;
2041;SDS011;1026;51.460;7.252;2024-03-08T13:16:08;12.17;;;10.23;;
2041;SDS011;1026;51.460;7.252;2024-03-08T13:18:35;14.10;;;9.50;;
2041;SDS011;1026;51.460;7.252;2024-03-08T13:21:03;13.10;;;8.80;;
2041;SDS011;1026;51.460;7.252;2024-03-08T13:23:34;14.20;;;9.90;;
2041;SDS011;1026;51.460;7.252;2024-03-08T13:26:09;12.73;;;9.60;;
2041;SDS011;1026;51.460;7.252;2024-03-08T13:28:48;13.97;;;10.30;;
2041;SDS011;1026;51.460;7.252;2024-03-08T13:31:20;14.87;;;10.30;;
2041;SDS011;1026;51.460;7.252;2024-03-08T13:33:47;11.60;;;9.63;;
2041;SDS011;1026;51.460;7.252;2024-03-08T13:36:15;16.27;;;10.57;;
2041;SDS011;1026;51.460;7.252;2024-03-08T13:38:43;12.10;;;9.50;;
2041;SDS011;1026;51.460;7.252;2024-03-08T13:41:11;11.70;;;9.50;;
2041;SDS011;1026;51.460;7.252;2024-03-08T13:43:41;9.90;;;8.30;;
2041;SDS011;1026;51.460;7.252;2024-03-08T13:46:08;11.90;;;9.67;;
2041;SDS011;1026;51.460;7.252;2024-03-08T13:48:37;11.33;;;8.57;;
2041;SDS011;1026;51.460;7.252;2024-03-08T13:51:07;11.40;;;9.03;;
2041;SDS011;1026;51.460;7.252;2024-03-08T13:53:36;11.03;;;9.43;;
2041;SDS011;1026;51.460;7.252;2024-03-08T13:56:03;12.23;;;10.00;;
2041;SDS011;1026;51.460;7.252;2024-03-08T13:58:32;11.93;;;8.60;;
2041;SDS011;1026;51.460;7.252;2024-03-08T14:00:59;13.00;;;9.23;;
2041;SDS011;1026;51.460;7.252;2024-03-08T14:03:27;11.10;;;8.57;;
2041;SDS011;1026;51.460;7.252;2024-03-08T14:05:54;13.47;;;9.60;;
2041;SDS011;1026;51.460;7.252;2024-03-08T14:08:22;15.50;;;11.03;;
2041;SDS011;1026;51.460;7.252;2024-03-08T14:10:51;12.50;;;9.80;;
2041;SDS011;1026;51.460;7.252;2024-03-08T14:13:20;10.33;;;8.60;;
2041;SDS011;1026;51.460;7.252;2024-03-08T14:15:47;14.50;;;10.73;;
2041;SDS011;1026;51.460;7.252;2024-03-08T14:18:14;13.47;;;9.97;;
2041;SDS011;1026;51.460;7.252;2024-03-08T14:20:42;15.50;;;11.03;;
2041;SDS011;1026;51.460;7.252;2024-03-08T14:23:08;13.73;;;11.10;;
2041;SDS011;1026;51.460;7.252;2024-03-08T14:25:36;14.13;;;10.57;;
2041;SDS011;1026;51.460;7.252;2024-03-08T14:28:03;15.33;;;10.90;;
2041;SDS011;1026;51.460;7.252;2024-03-08T14:30:35;11.07;;;9.03;;
2041;SDS011;1026;51.460;7.252;2024-03-08T14:33:04;15.40;;;11.10;;
2041;SDS011;1026;51.460;7.252;2024-03-08T14:35:32;18.47;;;11.87;;
2041;SDS011;1026;51.460;7.252;2024-03-08T14:38:00;12.30;;;10.90;;
2041;SDS011;1026;51.460;7.252;2024-03-08T14:40:27;19.17;;;10.77;;
2041;SDS011;1026;51.460;7.252;2024-03-08T14:42:56;16.07;;;11.87;;
2041;SDS011;1026;51.460;7.252;2024-03-08T14:45:23;16.30;;;12.00;;
2041;SDS011;1026;51.460;7.252;2024-03-08T14:47:50;14.83;;;11.57;;
2041;SDS011;1026;51.460;7.252;2024-03-08T14:50:18;20.37;;;13.63;;
2041;SDS011;1026;51.460;7.252;2024-03-08T14:52:46;13.57;;;11.37;;
2041;SDS011;1026;51.460;7.252;2024-03-08T14:55:20;17.07;;;12.20;;
2041;SDS011;1026;51.460;7.252;2024-03-08T14:57:48;17.20;;;12.70;;
2041;SDS011;1026;51.460;7.252;2024-03-08T15:00:18;14.83;;;11.70;;
2041;SDS011;1026;51.460;7.252;2024-03-08T15:03:02;19.17;;;12.50;;
2041;SDS011;1026;51.460;7.252;2024-03-08T15:05:32;18.63;;;12.70;;
2041;SDS011;1026;51.460;7.252;2024-03-08T15:08:08;13.33;;;10.50;;
2041;SDS011;1026;51.460;7.252;2024-03-08T15:10:38;14.00;;;10.50;;